Time;durP1;ratioP1;P1;durP2;ratioP2;P2;SDS_P1;SDS_P2;PMS_P1;PMS_P2;Temp;Humidity;BMP_temperature;BMP_pressure;BME280_temperature;BME280_humidity;BME280_pressure;Samples;Min_cycle;Max_cycle;Signal;HPM_P1;HPM_P2
2021/12/19 00:00:08;;;;;;;10.98;6.93;;;8.70;88.30;;;;;;4988367;28;20034;-72
2021/12/19 00:10:53;;;;;;;8.15;5.80;;;8.60;88.10;;;;;;4984536;28;20093;-71
2021/12/19 00:13:19;;;;;;;10.85;6.78;;;8.50;88.10;;;;;;4982109;28;20034;-71
2021/12/19 00:15:44;;;;;;;8.93;5.88;;;8.50;88.10;;;;;;4988391;28;20580;-71
2021/12/19 00:18:13;;;;;;;8.73;5.50;;;8.50;88.20;;;;;;4984237;28;20022;-72
2021/12/19 00:20:39;;;;;;;8.60;5.40;;;8.40;88.00;;;;;;4989628;28;20041;-71
2021/12/19 00:23:05;;;;;;;7.55;5.60;;;8.40;87.90;;;;;;5005971;28;20030;-71
2021/12/19 00:25:30;;;;;;;9.23;6.25;;;8.40;87.80;;;;;;4992662;28;20018;-71
2021/12/19 00:27:56;;;;;;;8.70;5.65;;;8.50;87.80;;;;;;4989630;28;20113;-71
2021/12/19 00:30:22;;;;;;;9.70;5.85;;;8.50;87.70;;;;;;4991555;28;20057;-71
2021/12/19 00:32:47;;;;;;;8.75;6.13;;;8.50;87.60;;;;;;4974465;28;20027;-71
2021/12/19 00:35:14;;;;;;;7.32;5.60;;;8.40;87.50;;;;;;4975252;28;20042;-71
2021/12/19 00:37:40;;;;;;;7.00;5.38;;;8.40;87.50;;;;;;4992272;28;20031;-71
2021/12/19 00:40:06;;;;;;;9.70;6.13;;;8.40;87.60;;;;;;4992095;28;20034;-72
2021/12/19 00:42:37;;;;;;;7.70;5.43;;;8.40;87.70;;;;;;4991250;28;20422;-72
2021/12/19 00:45:15;;;;;;;7.22;5.70;;;8.30;87.70;;;;;;4990710;28;20066;-72
2021/12/19 00:47:43;;;;;;;9.32;6.60;;;8.30;87.70;;;;;;4992159;28;20061;-72
2021/12/19 00:50:09;;;;;;;8.50;6.35;;;8.20;87.70;;;;;;4991448;28;20057;-72
2021/12/19 00:52:34;;;;;;;7.35;5.75;;;8.30;87.70;;;;;;4991603;28;20022;-72
2021/12/19 00:55:00;;;;;;;7.53;5.60;;;8.20;87.70;;;;;;4991754;28;20061;-72
2021/12/19 00:57:26;;;;;;;8.93;5.82;;;8.20;87.80;;;;;;4991859;28;20030;-70
2021/12/19 00:59:51;;;;;;;9.05;6.75;;;8.20;87.90;;;;;;4991806;28;20050;-70
2021/12/19 01:02:17;;;;;;;9.30;6.25;;;8.20;87.90;;;;;;4991692;28;20026;-70
2021/12/19 01:04:43;;;;;;;9.70;6.55;;;8.20;87.80;;;;;;4992472;28;20030;-71
2021/12/19 01:07:09;;;;;;;9.68;6.30;;;8.30;87.80;;;;;;4990209;28;20062;-71
2021/12/19 01:09:35;;;;;;;9.65;6.70;;;8.30;88.50;;;;;;4998638;28;20073;-71
2021/12/19 01:12:02;;;;;;;8.45;5.95;;;8.30;87.90;;;;;;4991725;28;20046;-71
2021/12/19 01:14:28;;;;;;;7.82;5.72;;;8.20;87.90;;;;;;4990240;28;20395;-71
2021/12/19 01:16:55;;;;;;;9.07;6.45;;;8.30;88.00;;;;;;4989434;28;20103;-70
2021/12/19 01:19:22;;;;;;;9.00;6.43;;;8.30;87.90;;;;;;4987853;28;20030;-70
2021/12/19 01:21:49;;;;;;;7.72;5.82;;;8.30;88.00;;;;;;4990848;28;20037;-70
2021/12/19 01:24:15;;;;;;;8.25;5.55;;;8.20;88.00;;;;;;4990607;28;20042;-70
2021/12/19 01:26:42;;;;;;;8.98;5.68;;;8.20;88.10;;;;;;4989865;28;20027;-72
2021/12/19 01:29:09;;;;;;;8.48;5.70;;;8.20;88.20;;;;;;4989933;28;20034;-72
2021/12/19 01:31:35;;;;;;;7.47;5.85;;;8.20;88.30;;;;;;4989455;28;20027;-72
2021/12/19 01:34:01;;;;;;;6.15;4.72;;;8.20;88.90;;;;;;4990633;28;20138;-72
2021/12/19 01:36:26;;;;;;;8.23;5.22;;;8.20;88.40;;;;;;4990149;28;20038;-72
2021/12/19 01:38:52;;;;;;;7.65;4.85;;;8.20;88.40;;;;;;4988836;28;20022;-71
2021/12/19 01:41:18;;;;;;;8.20;5.10;;;8.20;88.40;;;;;;4990631;28;20062;-72
2021/12/19 01:43:44;;;;;;;8.68;5.70;;;8.20;88.30;;;;;;4988635;28;20513;-72
2021/12/19 01:46:10;;;;;;;7.93;5.55;;;8.20;88.10;;;;;;4985293;28;20084;-72
2021/12/19 01:48:36;;;;;;;6.90;5.35;;;8.20;88.90;;;;;;4990270;28;20030;-72
2021/12/19 01:51:01;;;;;;;7.13;5.43;;;8.30;88.50;;;;;;4989783;28;20077;-72
2021/12/19 01:53:28;;;;;;;7.75;4.80;;;8.30;88.50;;;;;;4989463;28;20043;-72
2021/12/19 01:55:55;;;;;;;6.82;5.15;;;8.30;89.10;;;;;;4987863;28;20030;-71
2021/12/19 01:58:20;;;;;;;8.85;5.40;;;8.30;88.50;;;;;;4989054;28;20045;-71
2021/12/19 02:00:53;;;;;;;8.00;5.25;;;8.30;88.50;;;;;;4989050;28;20027;-71
2021/12/19 02:03:19;;;;;;;5.47;4.15;;;8.30;88.60;;;;;;4989490;28;20030;-70
2021/12/19 02:05:46;;;;;;;8.05;5.25;;;8.30;88.60;;;;;;4989848;28;20053;-70
2021/12/19 02:08:13;;;;;;;5.70;4.43;;;8.30;88.60;;;;;;4989782;28;20034;-71
2021/12/19 02:10:40;;;;;;;6.82;4.85;;;8.30;88.70;;;;;;4990431;28;20509;-69
2021/12/19 02:13:07;;;;;;;7.30;4.88;;;8.30;88.80;;;;;;4993438;28;20035;-71
2021/12/19 02:15:35;;;;;;;5.55;4.35;;;8.20;88.80;;;;;;4996464;28;20105;-72
2021/12/19 02:18:06;;;;;;;5.47;3.45;;;8.20;88.90;;;;;;4988374;28;20026;-71
2021/12/19 02:20:35;;;;;;;4.68;3.50;;;8.20;88.90;;;;;;4986680;28;20022;-71
2021/12/19 02:23:02;;;;;;;4.80;3.05;;;8.20;88.80;;;;;;4990145;28;20069;-70
2021/12/19 02:25:28;;;;;;;4.05;2.70;;;8.20;89.00;;;;;;4989364;28;20033;-70
2021/12/19 02:27:54;;;;;;;3.63;2.65;;;8.20;88.90;;;;;;4990724;28;20482;-71
2021/12/19 02:30:20;;;;;;;4.30;2.63;;;8.20;88.90;;;;;;4988383;28;20038;-70
2021/12/19 02:32:46;;;;;;;3.58;2.55;;;8.20;89.00;;;;;;4990146;28;20445;-71
2021/12/19 02:35:17;;;;;;;3.05;2.50;;;8.10;89.10;;;;;;4989734;28;20156;-70
2021/12/19 02:38:27;;;;;;;3.45;2.58;;;8.10;89.20;;;;;;4990214;28;20122;-70
2021/12/19 02:48:46;;;;;;;3.58;2.88;;;8.20;89.50;;;;;;4989442;28;20057;-70
2021/12/19 02:51:12;;;;;;;3.42;2.60;;;8.20;89.40;;;;;;4989126;28;20031;-71
2021/12/19 02:53:41;;;;;;;3.97;3.03;;;8.20;89.40;;;;;;4989897;28;20037;-71
2021/12/19 02:56:16;;;;;;;3.60;2.97;;;8.20;89.30;;;;;;4987035;28;20090;-71
2021/12/19 02:58:43;;;;;;;3.65;2.92;;;8.30;89.30;;;;;;4990197;28;20089;-71
2021/12/19 03:01:17;;;;;;;4.28;3.17;;;8.20;89.40;;;;;;4989088;28;20097;-71
2021/12/19 03:03:43;;;;;;;3.58;2.60;;;8.30;89.50;;;;;;4962678;28;20023;-71
2021/12/19 03:06:09;;;;;;;3.92;3.00;;;8.20;89.40;;;;;;4978599;28;20033;-71
2021/12/19 03:08:40;;;;;;;4.35;2.45;;;8.20;89.40;;;;;;4989933;28;20121;-71
2021/12/19 03:19:20;;;;;;;3.25;2.50;;;8.30;89.50;;;;;;4994305;28;20045;-71
2021/12/19 03:21:46;;;;;;;4.80;2.65;;;8.20;89.40;;;;;;4990010;28;20019;-70
2021/12/19 03:24:12;;;;;;;5.00;2.22;;;8.30;89.50;;;;;;4987366;28;20069;-70
2021/12/19 03:26:38;;;;;;;3.80;2.72;;;8.30;89.50;;;;;;4987817;28;20058;-70
2021/12/19 03:29:04;;;;;;;5.10;2.60;;;8.20;89.50;;;;;;4989385;28;20047;-71
2021/12/19 03:31:30;;;;;;;4.53;2.45;;;8.30;89.50;;;;;;4985695;28;20038;-71
2021/12/19 03:33:56;;;;;;;3.28;2.17;;;8.20;89.50;;;;;;4989202;28;20488;-71
2021/12/19 03:36:22;;;;;;;3.67;2.53;;;8.20;89.60;;;;;;4988102;28;20030;-69
2021/12/19 03:38:49;;;;;;;4.32;2.85;;;8.20;89.70;;;;;;4989376;28;20023;-69
2021/12/19 03:41:20;;;;;;;3.58;2.75;;;8.20;89.70;;;;;;4988923;28;20100;-72
2021/12/19 03:43:46;;;;;;;3.88;2.53;;;8.20;89.70;;;;;;4988865;28;20083;-70
2021/12/19 03:46:12;;;;;;;5.65;3.40;;;8.20;89.80;;;;;;4987724;28;20113;-70
2021/12/19 03:48:38;;;;;;;4.97;2.90;;;8.20;89.70;;;;;;4971238;28;20026;-70
2021/12/19 03:51:04;;;;;;;4.13;2.60;;;8.20;89.60;;;;;;4988925;28;20153;-70
2021/12/19 03:53:31;;;;;;;4.72;2.72;;;8.20;89.70;;;;;;4988660;28;20057;-69
2021/12/19 03:55:56;;;;;;;3.65;2.53;;;8.20;89.70;;;;;;4987976;28;20034;-69
2021/12/19 03:58:22;;;;;;;3.90;2.50;;;8.20;89.80;;;;;;4989486;28;20363;-69
2021/12/19 04:00:50;;;;;;;5.07;2.70;;;8.20;89.80;;;;;;4990828;28;20466;-69
2021/12/19 04:03:19;;;;;;;4.28;2.60;;;8.20;89.90;;;;;;4991349;28;20033;-69
2021/12/19 04:05:49;;;;;;;4.70;3.03;;;8.30;90.00;;;;;;4989486;28;20035;-69
2021/12/19 04:08:16;;;;;;;3.90;2.55;;;8.30;90.00;;;;;;4980130;28;20048;-69
2021/12/19 04:10:42;;;;;;;4.95;3.47;;;8.20;89.90;;;;;;4988963;28;20058;-69
2021/12/19 04:13:11;;;;;;;4.40;2.58;;;8.20;90.00;;;;;;4992867;28;20026;-69
2021/12/19 04:15:39;;;;;;;4.82;2.70;;;8.20;90.10;;;;;;4992211;28;20161;-69
2021/12/19 04:18:05;;;;;;;4.70;2.95;;;8.20;90.10;;;;;;4968753;28;20050;-69
2021/12/19 04:20:31;;;;;;;3.88;2.75;;;8.20;90.10;;;;;;4991060;28;20026;-69
2021/12/19 04:22:57;;;;;;;3.80;2.70;;;8.20;90.20;;;;;;4993826;28;20061;-69
2021/12/19 04:25:23;;;;;;;4.68;3.13;;;8.20;90.10;;;;;;5007242;28;20026;-68
2021/12/19 04:27:48;;;;;;;4.18;2.80;;;8.30;90.10;;;;;;4994722;28;20105;-68
2021/12/19 04:30:23;;;;;;;4.72;2.72;;;8.30;90.10;;;;;;4981990;28;20030;-68
2021/12/19 04:33:09;;;;;;;4.55;2.95;;;8.30;90.20;;;;;;4986798;28;20026;-68
2021/12/19 04:35:44;;;;;;;6.25;2.72;;;8.30;90.20;;;;;;4983233;28;20341;-68
2021/12/19 04:41:14;;;;;;;4.07;3.00;;;8.30;90.20;;;;;;4992051;28;20048;-69
2021/12/19 04:52:15;;;;;;;7.22;3.65;;;8.30;90.20;;;;;;4992087;28;20104;-69
2021/12/19 04:59:59;;;;;;;4.10;3.05;;;8.40;90.20;;;;;;4992326;28;20045;-70
2021/12/19 05:15:45;;;;;;;4.03;2.67;;;8.40;90.30;;;;;;4987570;28;20089;-69
2021/12/19 05:18:11;;;;;;;3.90;2.35;;;8.40;90.40;;;;;;4991018;28;20038;-71
2021/12/19 05:20:39;;;;;;;4.18;2.60;;;8.40;90.40;;;;;;4977496;28;20102;-71
2021/12/19 05:23:28;;;;;;;5.00;3.20;;;8.40;90.40;;;;;;4987364;28;20045;-71
2021/12/19 05:25:53;;;;;;;3.75;2.70;;;8.40;90.40;;;;;;4991583;28;20034;-71
2021/12/19 05:28:19;;;;;;;4.20;3.13;;;8.40;90.40;;;;;;4990191;28;20164;-71
2021/12/19 05:30:45;;;;;;;5.03;3.47;;;8.40;90.40;;;;;;4988545;28;20065;-71
2021/12/19 05:33:11;;;;;;;5.32;3.55;;;8.40;90.40;;;;;;4994126;28;20054;-71
2021/12/19 05:46:25;;;;;;;6.57;3.85;;;8.50;90.50;;;;;;4990322;28;20116;-70
2021/12/19 05:48:51;;;;;;;5.18;3.40;;;8.50;90.50;;;;;;4991013;28;20073;-69
2021/12/19 05:51:16;;;;;;;5.50;3.92;;;8.40;90.50;;;;;;4987622;28;20048;-69
2021/12/19 05:53:42;;;;;;;5.80;3.00;;;8.40;90.50;;;;;;4986610;28;20035;-69
2021/12/19 05:56:11;;;;;;;5.32;3.28;;;8.50;90.60;;;;;;4982720;28;20038;-69
2021/12/19 05:58:37;;;;;;;5.88;3.15;;;8.40;90.60;;;;;;4989177;28;20054;-71
2021/12/19 06:01:03;;;;;;;3.92;2.17;;;8.40;90.50;;;;;;4989270;28;20143;-71
2021/12/19 06:03:29;;;;;;;3.40;2.22;;;8.50;90.60;;;;;;4990615;28;20030;-71
2021/12/19 06:05:55;;;;;;;4.22;2.58;;;8.50;90.50;;;;;;4989611;28;20413;-71
2021/12/19 06:08:23;;;;;;;2.97;2.00;;;8.50;90.50;;;;;;4990624;28;20489;-70
2021/12/19 06:10:49;;;;;;;2.75;2.20;;;8.50;90.80;;;;;;4990392;28;20035;-70
2021/12/19 06:13:14;;;;;;;3.22;2.00;;;8.50;90.50;;;;;;4989435;28;20041;-68
2021/12/19 06:15:40;;;;;;;3.22;1.80;;;8.50;90.50;;;;;;4988471;28;20116;-72
2021/12/19 06:18:06;;;;;;;2.30;1.60;;;8.60;90.50;;;;;;4989555;28;20030;-71
2021/12/19 06:20:32;;;;;;;4.20;1.65;;;8.60;90.50;;;;;;4989258;28;20031;-71
2021/12/19 06:23:01;;;;;;;2.22;1.55;;;8.60;90.40;;;;;;4985653;28;20038;-72
2021/12/19 06:25:27;;;;;;;1.95;1.33;;;8.60;90.40;;;;;;4989760;28;20031;-72
2021/12/19 06:27:53;;;;;;;1.98;1.67;;;8.60;90.40;;;;;;4991158;28;20466;-72
2021/12/19 06:30:19;;;;;;;2.20;1.50;;;8.60;90.40;;;;;;4989341;28;20132;-72
2021/12/19 06:32:45;;;;;;;2.60;1.50;;;8.60;90.40;;;;;;4990525;28;20026;-73
2021/12/19 06:35:18;;;;;;;2.40;1.27;;;8.60;90.30;;;;;;4989107;28;20021;-71
2021/12/19 06:37:45;;;;;;;2.15;1.48;;;8.50;90.20;;;;;;4996484;28;20026;-72
2021/12/19 06:40:13;;;;;;;2.00;1.23;;;8.50;90.30;;;;;;4994639;28;20037;-72
2021/12/19 06:42:39;;;;;;;1.77;1.10;;;8.50;90.30;;;;;;4989790;28;20018;-71
2021/12/19 06:45:06;;;;;;;1.40;1.00;;;8.50;90.20;;;;;;4989207;28;20371;-72
2021/12/19 06:47:32;;;;;;;1.17;0.85;;;8.40;90.10;;;;;;4989743;28;20108;-72
2021/12/19 06:49:58;;;;;;;1.33;0.80;;;8.40;90.10;;;;;;4988651;28;20093;-72
2021/12/19 06:52:24;;;;;;;1.38;0.93;;;8.30;90.00;;;;;;4989991;28;20117;-72
2021/12/19 06:54:49;;;;;;;1.35;1.00;;;8.40;90.10;;;;;;4989802;28;20045;-72
2021/12/19 06:57:15;;;;;;;1.23;0.98;;;8.40;90.10;;;;;;4988129;28;20038;-72
2021/12/19 06:59:41;;;;;;;1.15;0.80;;;8.30;90.10;;;;;;4988973;28;20441;-72
2021/12/19 07:02:06;;;;;;;1.58;0.73;;;8.30;90.10;;;;;;4988317;28;20026;-72
2021/12/19 07:04:32;;;;;;;1.27;0.82;;;8.30;90.00;;;;;;4982864;28;20035;-72
2021/12/19 07:06:58;;;;;;;2.00;0.70;;;8.30;90.00;;;;;;4984402;28;20153;-72
2021/12/19 07:09:23;;;;;;;1.13;0.65;;;8.30;90.00;;;;;;4989309;28;20049;-72
2021/12/19 07:11:49;;;;;;;0.80;0.65;;;8.30;90.00;;;;;;4987815;28;20046;-71
2021/12/19 07:14:15;;;;;;;1.27;0.85;;;8.30;90.00;;;;;;4988159;28;20026;-72
2021/12/19 07:16:41;;;;;;;0.85;0.57;;;8.30;90.00;;;;;;4970508;28;20053;-71
2021/12/19 07:19:06;;;;;;;1.52;0.80;;;8.30;89.90;;;;;;4985794;28;20026;-71
2021/12/19 07:21:32;;;;;;;0.45;0.40;;;8.30;89.80;;;;;;4989008;28;20022;-71
2021/12/19 07:23:58;;;;;;;0.75;0.40;;;8.30;89.70;;;;;;4988548;28;20168;-71
2021/12/19 07:26:23;;;;;;;0.60;0.50;;;8.20;89.60;;;;;;4988466;28;20031;-72
2021/12/19 07:28:50;;;;;;;1.10;0.50;;;8.20;89.50;;;;;;4987790;28;20038;-72
2021/12/19 07:31:18;;;;;;;0.63;0.50;;;8.30;89.50;;;;;;4988291;28;20551;-72
2021/12/19 07:33:45;;;;;;;0.70;0.60;;;8.30;89.40;;;;;;4982276;28;20026;-72
2021/12/19 07:36:11;;;;;;;1.20;0.55;;;8.30;89.40;;;;;;4980164;28;20014;-72
2021/12/19 07:38:49;;;;;;;0.80;0.50;;;8.30;89.40;;;;;;4982713;28;20045;-72
2021/12/19 07:41:15;;;;;;;0.98;0.63;;;8.30;89.40;;;;;;4991464;28;20561;-72
2021/12/19 07:43:40;;;;;;;1.40;0.60;;;8.30;89.30;;;;;;5001406;28;20061;-72
2021/12/19 07:46:06;;;;;;;1.67;1.02;;;8.30;89.90;;;;;;4992732;28;20367;-72
2021/12/19 07:48:32;;;;;;;1.13;0.63;;;8.30;89.30;;;;;;4991485;28;20041;-72
2021/12/19 07:50:57;;;;;;;0.75;0.50;;;8.30;89.30;;;;;;4993158;28;20457;-72
2021/12/19 07:53:24;;;;;;;0.95;0.68;;;8.30;89.40;;;;;;4992770;28;20053;-72
2021/12/19 07:55:50;;;;;;;0.77;0.60;;;8.30;89.40;;;;;;4989644;28;20031;-72
2021/12/19 07:58:16;;;;;;;0.80;0.70;;;8.30;89.40;;;;;;4992971;28;20031;-72
2021/12/19 08:00:42;;;;;;;1.42;0.52;;;8.30;89.40;;;;;;4992651;28;20027;-72
2021/12/19 08:03:07;;;;;;;1.73;0.85;;;8.30;89.50;;;;;;4993218;28;20425;-71
2021/12/19 08:05:33;;;;;;;1.52;0.90;;;8.30;89.50;;;;;;4990836;28;20069;-72
2021/12/19 08:08:04;;;;;;;1.33;0.80;;;8.30;89.30;;;;;;4992289;28;20065;-72
2021/12/19 08:13:00;;;;;;;1.08;0.77;;;8.30;89.30;;;;;;4992806;28;20049;-72
2021/12/19 08:15:27;;;;;;;1.13;0.90;;;8.30;89.30;;;;;;4991245;28;20516;-72
2021/12/19 08:17:52;;;;;;;1.20;0.77;;;8.30;89.20;;;;;;4986000;28;20461;-71
2021/12/19 08:20:18;;;;;;;1.08;0.73;;;8.30;89.30;;;;;;4991916;28;20041;-71
2021/12/19 08:22:46;;;;;;;1.85;1.00;;;8.30;89.30;;;;;;4989924;28;20026;-72
2021/12/19 08:25:13;;;;;;;1.00;0.90;;;8.30;89.20;;;;;;4983546;28;20046;-72
2021/12/19 08:27:39;;;;;;;1.13;0.77;;;8.30;89.30;;;;;;4991707;28;20022;-72
2021/12/19 08:30:08;;;;;;;1.02;0.70;;;8.30;89.30;;;;;;4990805;28;20049;-72
2021/12/19 08:32:34;;;;;;;0.90;0.77;;;8.30;89.40;;;;;;4990639;28;20022;-72
2021/12/19 08:35:01;;;;;;;1.00;0.70;;;8.30;89.10;;;;;;4985518;28;20500;-72
2021/12/19 08:37:27;;;;;;;0.90;0.70;;;8.30;89.00;;;;;;5000266;28;20026;-72
2021/12/19 08:39:52;;;;;;;0.70;0.60;;;8.30;89.10;;;;;;4991743;28;20054;-72
2021/12/19 08:42:18;;;;;;;0.50;0.50;;;8.30;89.00;;;;;;4991344;28;20034;-72
2021/12/19 08:44:44;;;;;;;0.40;0.40;;;8.30;89.00;;;;;;4984954;28;20397;-73
2021/12/19 08:47:11;;;;;;;0.57;0.50;;;8.30;89.00;;;;;;4990373;28;20045;-73
2021/12/19 08:49:37;;;;;;;0.85;0.63;;;8.30;88.80;;;;;;4981547;28;20030;-72
2021/12/19 08:52:04;;;;;;;0.60;0.55;;;8.30;88.60;;;;;;4978990;28;20406;-72
2021/12/19 08:54:29;;;;;;;0.60;0.50;;;8.30;88.70;;;;;;4983268;28;20034;-73
2021/12/19 08:56:55;;;;;;;0.40;0.40;;;8.30;88.60;;;;;;4990636;28;20090;-74
2021/12/19 08:59:21;;;;;;;0.88;0.43;;;8.30;88.70;;;;;;4984644;28;20154;-75
2021/12/19 09:01:48;;;;;;;1.38;0.50;;;8.30;88.60;;;;;;4989536;28;20397;-73
2021/12/19 09:04:14;;;;;;;0.47;0.40;;;8.40;88.60;;;;;;4989575;28;20030;-74
2021/12/19 09:06:40;;;;;;;0.98;0.50;;;8.40;88.70;;;;;;4990109;28;20031;-71
2021/12/19 09:09:06;;;;;;;1.30;0.68;;;8.40;88.70;;;;;;4990784;28;20026;-71
2021/12/19 09:11:33;;;;;;;1.27;0.60;;;8.40;88.60;;;;;;4971312;28;20034;-71
2021/12/19 09:13:58;;;;;;;0.60;0.60;;;8.40;88.70;;;;;;4984786;28;20038;-72
2021/12/19 09:16:25;;;;;;;1.65;0.70;;;8.40;88.80;;;;;;4988033;28;20068;-70
2021/12/19 09:18:51;;;;;;;0.68;0.57;;;8.40;88.80;;;;;;4985823;28;20035;-66
2021/12/19 09:21:17;;;;;;;1.17;0.88;;;8.50;88.90;;;;;;4983364;28;20084;-68
2021/12/19 09:23:42;;;;;;;1.23;0.70;;;8.50;89.00;;;;;;4991342;28;20026;-64
2021/12/19 09:26:13;;;;;;;3.25;1.00;;;8.50;89.10;;;;;;4987999;28;20046;-68
2021/12/19 09:28:39;;;;;;;1.83;0.80;;;8.50;89.10;;;;;;4988052;28;20051;-71
2021/12/19 09:31:05;;;;;;;1.63;0.90;;;8.50;89.00;;;;;;4987762;28;20117;-76
2021/12/19 09:33:31;;;;;;;1.30;0.93;;;8.50;88.90;;;;;;4989900;28;20061;-82
2021/12/19 09:35:57;;;;;;;1.25;0.90;;;8.50;89.00;;;;;;4990070;28;20109;-74
2021/12/19 09:38:23;;;;;;;4.80;1.25;;;8.50;89.00;;;;;;4987874;28;20089;-67
2021/12/19 09:40:50;;;;;;;3.50;1.60;;;8.50;88.90;;;;;;4982376;28;20041;-73
2021/12/19 09:43:41;;;;;;;2.97;1.35;;;8.50;88.80;;;;;;4968274;28;20057;-72
2021/12/19 09:46:13;;;;;;;3.38;1.80;;;8.50;88.70;;;;;;4985083;28;20393;-71
2021/12/19 09:48:41;;;;;;;5.32;1.83;;;8.50;88.80;;;;;;4987400;28;20121;-72
2021/12/19 09:51:10;;;;;;;3.70;1.80;;;8.50;88.90;;;;;;4988098;28;20050;-71
2021/12/19 09:53:37;;;;;;;1.98;1.65;;;8.50;89.00;;;;;;4999983;28;20130;-68
2021/12/19 09:56:03;;;;;;;3.55;1.67;;;8.50;89.00;;;;;;4989117;28;20065;-74
2021/12/19 09:58:36;;;;;;;4.97;1.90;;;8.50;89.00;;;;;;4989458;28;20042;-75
2021/12/19 10:01:05;;;;;;;5.05;2.15;;;8.50;89.10;;;;;;4988728;28;20049;-73
2021/12/19 10:03:31;;;;;;;3.42;1.95;;;8.50;89.00;;;;;;4989794;28;20018;-72
2021/12/19 10:06:18;;;;;;;5.93;2.53;;;8.50;89.10;;;;;;4989964;28;20035;-71
2021/12/19 10:08:52;;;;;;;7.95;3.20;;;8.50;89.20;;;;;;4990452;28;20031;-71
2021/12/19 10:11:43;;;;;;;6.15;2.80;;;8.50;89.10;;;;;;4986358;28;20041;-74
2021/12/19 10:14:29;;;;;;;6.22;2.92;;;8.60;89.20;;;;;;4987897;28;20134;-72
2021/12/19 10:16:57;;;;;;;11.43;3.60;;;8.50;88.90;;;;;;4981725;28;20144;-72
2021/12/19 10:19:42;;;;;;;8.45;3.00;;;8.50;89.00;;;;;;4988737;28;20081;-72
2021/12/19 10:22:28;;;;;;;6.75;3.05;;;8.50;89.10;;;;;;4988615;28;20080;-71
2021/12/19 10:24:56;;;;;;;6.32;3.13;;;8.50;89.10;;;;;;4987655;28;20176;-73
2021/12/19 10:27:37;;;;;;;6.45;2.88;;;8.50;89.10;;;;;;4988813;28;20033;-70
2021/12/19 10:30:20;;;;;;;8.73;3.05;;;8.50;89.10;;;;;;4990276;28;20039;-75
2021/12/19 10:32:54;;;;;;;5.82;2.72;;;8.40;89.10;;;;;;4989668;28;20110;-74
2021/12/19 10:35:24;;;;;;;8.13;3.03;;;8.50;89.40;;;;;;4989653;28;20516;-73
2021/12/19 10:37:50;;;;;;;6.00;3.10;;;8.50;89.40;;;;;;4990564;28;20084;-79
2021/12/19 10:40:16;;;;;;;7.47;3.00;;;8.50;89.20;;;;;;4990267;28;20038;-70
2021/12/19 10:42:59;;;;;;;4.97;2.65;;;8.50;89.00;;;;;;4988994;28;20026;-75
2021/12/19 10:45:34;;;;;;;6.43;2.95;;;8.50;89.00;;;;;;4988183;28;20102;-72
2021/12/19 10:48:11;;;;;;;13.57;3.97;;;8.50;88.80;;;;;;4976746;28;20085;-73
2021/12/19 10:50:44;;;;;;;6.47;3.15;;;8.50;88.90;;;;;;4989360;28;20030;-74
2021/12/19 10:53:10;;;;;;;6.30;2.80;;;8.60;89.00;;;;;;4982133;28;20031;-81
2021/12/19 10:55:39;;;;;;;8.85;2.65;;;8.60;88.90;;;;;;4988847;28;20384;-72
2021/12/19 10:58:21;;;;;;;11.20;2.90;;;8.60;88.80;;;;;;4989237;28;20034;-72
2021/12/19 11:01:39;;;;;;;9.43;2.95;;;8.60;88.50;;;;;;4984033;28;20041;-70
2021/12/19 11:04:11;;;;;;;8.23;2.58;;;8.60;88.50;;;;;;4976911;28;20038;-72
2021/12/19 11:06:40;;;;;;;7.83;3.37;;;8.60;88.50;;;;;;4990089;28;20019;-72
2021/12/19 11:09:08;;;;;;;8.68;2.42;;;8.60;88.50;;;;;;4989074;28;20289;-66
2021/12/19 11:11:39;;;;;;;6.13;2.83;;;8.60;88.60;;;;;;4981525;28;20090;-72
2021/12/19 11:14:10;;;;;;;6.57;2.80;;;8.60;88.70;;;;;;4987894;28;20658;-73
2021/12/19 11:16:36;;;;;;;7.07;2.78;;;8.60;88.70;;;;;;4966834;28;20047;-71
2021/12/19 11:19:02;;;;;;;8.45;3.22;;;8.60;88.70;;;;;;4987189;28;20037;-72
2021/12/19 11:21:33;;;;;;;4.82;2.45;;;8.60;88.70;;;;;;4986507;28;20365;-72
2021/12/19 11:24:00;;;;;;;5.45;2.50;;;8.60;88.50;;;;;;4987129;28;20035;-72
2021/12/19 11:26:26;;;;;;;7.18;2.80;;;8.60;88.50;;;;;;4984873;28;20096;-71
2021/12/19 11:28:55;;;;;;;8.52;3.20;;;8.60;88.50;;;;;;4982071;28;20038;-71
2021/12/19 11:31:20;;;;;;;7.70;3.00;;;8.70;88.40;;;;;;4983029;28;20164;-71
2021/12/19 11:34:22;;;;;;;9.27;3.33;;;8.70;88.40;;;;;;4971330;28;20117;-71
2021/12/19 11:37:00;;;;;;;9.55;3.20;;;8.70;88.30;;;;;;4971053;28;20035;-71
2021/12/19 11:39:29;;;;;;;7.88;2.88;;;8.60;88.10;;;;;;4978908;28;20018;-71
2021/12/19 11:42:03;;;;;;;8.52;3.00;;;8.60;88.00;;;;;;4976751;28;20034;-71
2021/12/19 11:44:37;;;;;;;6.50;2.67;;;8.60;88.30;;;;;;4972350;28;20674;-71
2021/12/19 11:47:09;;;;;;;8.93;3.00;;;8.60;88.20;;;;;;4987898;28;20568;-71
2021/12/19 11:49:34;;;;;;;5.80;2.50;;;8.60;88.20;;;;;;4988984;28;20525;-71
2021/12/19 11:52:37;;;;;;;6.43;2.70;;;8.60;88.10;;;;;;4987475;28;20026;-72
2021/12/19 11:55:19;;;;;;;5.90;2.63;;;8.60;88.20;;;;;;4977716;28;20544;-71
2021/12/19 11:58:07;;;;;;;6.47;2.77;;;8.60;88.20;;;;;;4988047;28;20034;-71
2021/12/19 12:00:47;;;;;;;6.85;2.33;;;8.60;88.20;;;;;;4979595;28;20054;-71
2021/12/19 12:03:12;;;;;;;7.25;2.28;;;8.60;88.20;;;;;;4988638;28;20022;-72
2021/12/19 12:05:45;;;;;;;5.03;2.25;;;8.70;88.10;;;;;;4985578;28;20057;-73
2021/12/19 12:08:14;;;;;;;6.05;1.73;;;8.60;88.00;;;;;;4992465;28;20033;-72
2021/12/19 12:10:52;;;;;;;5.60;1.70;;;8.70;87.90;;;;;;4984596;28;20058;-72
2021/12/19 12:13:28;;;;;;;2.97;1.63;;;8.70;88.00;;;;;;4986180;28;20030;-72
2021/12/19 12:16:07;;;;;;;5.47;2.53;;;8.70;87.90;;;;;;4985018;28;20052;-72
2021/12/19 12:18:34;;;;;;;2.58;1.60;;;8.70;87.80;;;;;;4992213;28;20041;-71
2021/12/19 12:21:28;;;;;;;4.78;1.70;;;8.70;88.40;;;;;;4994024;28;20081;-68
2021/12/19 12:24:13;;;;;;;3.35;1.63;;;8.70;87.70;;;;;;4988193;28;20458;-68
2021/12/19 12:26:57;;;;;;;5.38;1.80;;;8.70;87.70;;;;;;4989448;28;20090;-67
2021/12/19 12:29:23;;;;;;;5.70;1.95;;;8.70;87.80;;;;;;4988844;28;20031;-68
2021/12/19 12:31:51;;;;;;;5.13;2.40;;;8.70;87.60;;;;;;4988496;28;20034;-68
2021/12/19 12:34:18;;;;;;;6.18;2.40;;;8.70;87.80;;;;;;4990427;28;20026;-67
2021/12/19 12:36:45;;;;;;;6.00;2.25;;;8.70;87.90;;;;;;4989507;28;20409;-68
2021/12/19 12:39:21;;;;;;;5.15;2.03;;;8.70;87.80;;;;;;4989561;28;20502;-71
2021/12/19 12:44:16;;;;;;;4.15;2.00;;;8.70;88.00;;;;;;4991170;28;20066;-71
2021/12/19 12:46:42;;;;;;;8.93;2.30;;;8.70;87.90;;;;;;4991082;28;20029;-71
2021/12/19 12:49:34;;;;;;;7.20;2.03;;;8.70;88.10;;;;;;4993102;28;20034;-71
2021/12/19 12:52:01;;;;;;;7.78;2.35;;;8.70;88.20;;;;;;5004629;28;20496;-71
2021/12/19 12:54:35;;;;;;;6.50;2.42;;;8.60;88.10;;;;;;4991674;28;20018;-72
2021/12/19 12:57:09;;;;;;;4.85;2.50;;;8.70;88.30;;;;;;4996096;28;20033;-72
2021/12/19 12:59:39;;;;;;;5.72;2.88;;;8.70;88.30;;;;;;4992396;28;20034;-71
2021/12/19 13:04:37;;;;;;;6.18;2.80;;;8.70;88.50;;;;;;4997886;28;20042;-72
2021/12/19 13:07:09;;;;;;;6.57;2.88;;;8.70;88.40;;;;;;4996168;28;20106;-72
2021/12/19 13:09:45;;;;;;;7.70;3.63;;;8.70;88.40;;;;;;4991624;28;20478;-71
2021/12/19 13:12:11;;;;;;;7.90;3.33;;;8.80;88.50;;;;;;4991205;28;20058;-72
2021/12/19 13:14:49;;;;;;;6.80;3.33;;;8.80;88.30;;;;;;4991226;28;20030;-71
2021/12/19 13:17:20;;;;;;;6.20;2.83;;;8.70;88.40;;;;;;4989887;28;20062;-72
2021/12/19 13:20:03;;;;;;;6.72;2.97;;;8.70;88.40;;;;;;4988995;28;20033;-71
2021/12/19 13:22:46;;;;;;;6.30;2.70;;;8.70;88.50;;;;;;5005816;28;20855;-71
2021/12/19 13:25:20;;;;;;;7.00;2.50;;;8.70;88.50;;;;;;4986353;28;20551;-71
2021/12/19 13:27:55;;;;;;;6.10;3.03;;;8.70;88.60;;;;;;4990868;28;20038;-71
2021/12/19 13:30:29;;;;;;;6.45;2.60;;;8.70;88.60;;;;;;4998721;28;20552;-71
2021/12/19 13:33:03;;;;;;;5.93;2.45;;;8.70;88.60;;;;;;4990455;28;20034;-72
2021/12/19 13:35:37;;;;;;;5.68;3.03;;;8.70;88.60;;;;;;4997642;28;20025;-71
2021/12/19 13:38:11;;;;;;;7.07;2.58;;;8.70;88.60;;;;;;4991538;28;20034;-71
2021/12/19 13:40:53;;;;;;;4.13;2.50;;;8.70;88.60;;;;;;5003179;28;20470;-72
2021/12/19 13:43:24;;;;;;;5.35;2.53;;;8.70;88.70;;;;;;4988810;28;20031;-71
2021/12/19 13:45:53;;;;;;;4.10;2.10;;;8.80;88.70;;;;;;4985870;28;20041;-71
2021/12/19 13:48:29;;;;;;;4.72;2.00;;;8.70;88.60;;;;;;4993671;28;20030;-72
2021/12/19 13:50:58;;;;;;;6.30;2.08;;;8.70;88.60;;;;;;4988691;28;20030;-71
2021/12/19 13:53:25;;;;;;;7.28;2.25;;;8.70;88.70;;;;;;4992212;28;20014;-71
2021/12/19 13:55:57;;;;;;;5.18;1.92;;;8.70;88.70;;;;;;4989737;28;20077;-72
2021/12/19 13:58:29;;;;;;;5.22;1.67;;;8.70;88.70;;;;;;4989737;28;20037;-72
2021/12/19 14:00:56;;;;;;;4.95;2.10;;;8.70;88.70;;;;;;4988498;28;20026;-71
2021/12/19 14:03:40;;;;;;;6.70;2.28;;;8.70;88.60;;;;;;4989439;28;20022;-71
2021/12/19 14:06:06;;;;;;;3.95;1.85;;;8.70;88.70;;;;;;4985301;28;20034;-71
2021/12/19 14:08:34;;;;;;;5.32;2.08;;;8.70;88.70;;;;;;4986059;28;20061;-71
2021/12/19 14:11:11;;;;;;;5.18;1.83;;;8.70;88.80;;;;;;4990952;28;20045;-70
2021/12/19 14:13:40;;;;;;;5.35;2.30;;;8.70;88.80;;;;;;4987219;28;20026;-71
2021/12/19 14:16:13;;;;;;;5.22;2.22;;;8.60;88.90;;;;;;4990357;28;20042;-71
2021/12/19 14:18:46;;;;;;;3.85;1.70;;;8.70;89.00;;;;;;4994224;28;20066;-71
2021/12/19 14:21:32;;;;;;;4.80;1.90;;;8.60;89.10;;;;;;5009711;28;20022;-71